sensor_id;sensor_type;location;lat;lon;timestamp;P1;durP1;ratioP1;P2;durP2;ratioP2
47796;SDS011;33558;50.922;14.068;2022-11-11T00:01:35;7.57;;;4.63;;
47796;SDS011;33558;50.922;14.068;2022-11-11T00:04:21;10.00;;;4.50;;
47796;SDS011;33558;50.922;14.068;2022-11-11T00:07:06;13.47;;;5.40;;
47796;SDS011;33558;50.922;14.068;2022-11-11T00:09:51;10.43;;;4.43;;
47796;SDS011;33558;50.922;14.068;2022-11-11T00:12:38;8.37;;;4.20;;
47796;SDS011;33558;50.922;14.068;2022-11-11T00:15:23;10.23;;;4.90;;
47796;SDS011;33558;50.922;14.068;2022-11-11T00:18:09;9.40;;;5.17;;
47796;SDS011;33558;50.922;14.068;2022-11-11T00:21:13;11.40;;;5.50;;
47796;SDS011;33558;50.922;14.068;2022-11-11T00:24:25;10.60;;;5.50;;
47796;SDS011;33558;50.922;14.068;2022-11-11T00:27:29;11.87;;;5.20;;
47796;SDS011;33558;50.922;14.068;2022-11-11T00:30:16;11.97;;;5.53;;
47796;SDS011;33558;50.922;14.068;2022-11-11T00:33:01;10.03;;;5.73;;
47796;SDS011;33558;50.922;14.068;2022-11-11T00:35:46;8.50;;;5.23;;
47796;SDS011;33558;50.922;14.068;2022-11-11T00:38:37;9.70;;;5.17;;
47796;SDS011;33558;50.922;14.068;2022-11-11T00:41:32;11.20;;;5.73;;
47796;SDS011;33558;50.922;14.068;2022-11-11T00:44:17;9.30;;;4.80;;
47796;SDS011;33558;50.922;14.068;2022-11-11T00:47:04;11.37;;;5.03;;
47796;SDS011;33558;50.922;14.068;2022-11-11T00:50:13;12.73;;;5.30;;
47796;SDS011;33558;50.922;14.068;2022-11-11T00:53:17;12.40;;;5.70;;
47796;SDS011;33558;50.922;14.068;2022-11-11T00:56:03;12.43;;;5.40;;
47796;SDS011;33558;50.922;14.068;2022-11-11T00:58:48;11.63;;;5.87;;
47796;SDS011;33558;50.922;14.068;2022-11-11T01:01:34;10.30;;;4.63;;
47796;SDS011;33558;50.922;14.068;2022-11-11T01:07:07;10.63;;;6.00;;
47796;SDS011;33558;50.922;14.068;2022-11-11T01:09:52;20.10;;;6.63;;
47796;SDS011;33558;50.922;14.068;2022-11-11T01:12:37;12.77;;;5.97;;
47796;SDS011;33558;50.922;14.068;2022-11-11T01:15:23;13.87;;;6.30;;
47796;SDS011;33558;50.922;14.068;2022-11-11T01:18:08;14.60;;;6.00;;
47796;SDS011;33558;50.922;14.068;2022-11-11T01:21:00;12.65;;;5.65;;
47796;SDS011;33558;50.922;14.068;2022-11-11T01:23:46;10.83;;;5.37;;
47796;SDS011;33558;50.922;14.068;2022-11-11T01:29:17;12.03;;;5.57;;
47796;SDS011;33558;50.922;14.068;2022-11-11T01:32:03;12.17;;;5.73;;
47796;SDS011;33558;50.922;14.068;2022-11-11T01:34:48;9.80;;;5.47;;
47796;SDS011;33558;50.922;14.068;2022-11-11T01:37:35;7.57;;;4.30;;
47796;SDS011;33558;50.922;14.068;2022-11-11T01:40:20;9.20;;;4.90;;
47796;SDS011;33558;50.922;14.068;2022-11-11T01:46:08;11.17;;;6.07;;
47796;SDS011;33558;50.922;14.068;2022-11-11T01:49:06;11.37;;;5.80;;
47796;SDS011;33558;50.922;14.068;2022-11-11T01:52:05;12.23;;;7.27;;
47796;SDS011;33558;50.922;14.068;2022-11-11T01:54:54;20.40;;;7.67;;
47796;SDS011;33558;50.922;14.068;2022-11-11T01:57:42;13.57;;;6.90;;
47796;SDS011;33558;50.922;14.068;2022-11-11T02:00:29;26.87;;;7.70;;
47796;SDS011;33558;50.922;14.068;2022-11-11T02:03:15;14.00;;;7.27;;
47796;SDS011;33558;50.922;14.068;2022-11-11T02:06:01;12.57;;;7.32;;
47796;SDS011;33558;50.922;14.068;2022-11-11T02:08:45;13.17;;;6.97;;
47796;SDS011;33558;50.922;14.068;2022-11-11T02:11:32;15.37;;;7.07;;
47796;SDS011;33558;50.922;14.068;2022-11-11T02:14:38;14.87;;;8.77;;
47796;SDS011;33558;50.922;14.068;2022-11-11T02:17:26;11.97;;;6.33;;
47796;SDS011;33558;50.922;14.068;2022-11-11T02:20:12;13.93;;;6.67;;
47796;SDS011;33558;50.922;14.068;2022-11-11T02:22:59;13.77;;;6.77;;
47796;SDS011;33558;50.922;14.068;2022-11-11T02:25:49;14.93;;;7.07;;
47796;SDS011;33558;50.922;14.068;2022-11-11T02:28:34;13.10;;;7.63;;
47796;SDS011;33558;50.922;14.068;2022-11-11T02:31:23;18.17;;;8.65;;
47796;SDS011;33558;50.922;14.068;2022-11-11T02:34:10;15.30;;;6.93;;
47796;SDS011;33558;50.922;14.068;2022-11-11T02:36:55;11.67;;;5.90;;
47796;SDS011;33558;50.922;14.068;2022-11-11T02:39:42;12.07;;;6.70;;
47796;SDS011;33558;50.922;14.068;2022-11-11T02:42:30;11.73;;;6.83;;
47796;SDS011;33558;50.922;14.068;2022-11-11T02:45:15;20.77;;;8.50;;
47796;SDS011;33558;50.922;14.068;2022-11-11T02:48:00;13.63;;;7.70;;
47796;SDS011;33558;50.922;14.068;2022-11-11T02:50:45;15.00;;;8.43;;
47796;SDS011;33558;50.922;14.068;2022-11-11T02:53:31;13.53;;;8.03;;
47796;SDS011;33558;50.922;14.068;2022-11-11T02:56:16;17.23;;;8.53;;
47796;SDS011;33558;50.922;14.068;2022-11-11T02:59:23;16.67;;;8.43;;
47796;SDS011;33558;50.922;14.068;2022-11-11T03:02:08;14.13;;;7.13;;
47796;SDS011;33558;50.922;14.068;2022-11-11T03:04:53;13.67;;;6.77;;
47796;SDS011;33558;50.922;14.068;2022-11-11T03:07:38;12.27;;;6.70;;
47796;SDS011;33558;50.922;14.068;2022-11-11T03:10:24;12.67;;;6.60;;
47796;SDS011;33558;50.922;14.068;2022-11-11T03:13:09;11.07;;;5.67;;
47796;SDS011;33558;50.922;14.068;2022-11-11T03:15:56;13.20;;;6.57;;
47796;SDS011;33558;50.922;14.068;2022-11-11T03:18:41;10.70;;;6.17;;
47796;SDS011;33558;50.922;14.068;2022-11-11T03:21:26;13.37;;;6.73;;
47796;SDS011;33558;50.922;14.068;2022-11-11T03:24:11;10.47;;;5.87;;
47796;SDS011;33558;50.922;14.068;2022-11-11T03:26:56;13.20;;;6.23;;
47796;SDS011;33558;50.922;14.068;2022-11-11T03:29:41;12.27;;;6.37;;
47796;SDS011;33558;50.922;14.068;2022-11-11T03:32:28;12.80;;;5.65;;
47796;SDS011;33558;50.922;14.068;2022-11-11T03:35:13;9.97;;;5.30;;
47796;SDS011;33558;50.922;14.068;2022-11-11T03:37:58;14.23;;;5.43;;
47796;SDS011;33558;50.922;14.068;2022-11-11T03:40:57;8.60;;;4.60;;
47796;SDS011;33558;50.922;14.068;2022-11-11T03:43:43;9.20;;;4.45;;
47796;SDS011;33558;50.922;14.068;2022-11-11T03:46:28;10.17;;;4.60;;
47796;SDS011;33558;50.922;14.068;2022-11-11T03:49:15;15.77;;;5.10;;
47796;SDS011;33558;50.922;14.068;2022-11-11T03:52:00;11.33;;;5.20;;
47796;SDS011;33558;50.922;14.068;2022-11-11T03:54:45;12.10;;;5.47;;
47796;SDS011;33558;50.922;14.068;2022-11-11T03:57:31;13.50;;;5.40;;
47796;SDS011;33558;50.922;14.068;2022-11-11T04:00:17;9.57;;;5.20;;
47796;SDS011;33558;50.922;14.068;2022-11-11T04:03:05;10.77;;;4.70;;
47796;SDS011;33558;50.922;14.068;2022-11-11T04:06:10;9.50;;;4.60;;
47796;SDS011;33558;50.922;14.068;2022-11-11T04:09:12;12.63;;;5.90;;
47796;SDS011;33558;50.922;14.068;2022-11-11T04:12:15;16.07;;;5.60;;
47796;SDS011;33558;50.922;14.068;2022-11-11T04:15:01;14.13;;;5.63;;
47796;SDS011;33558;50.922;14.068;2022-11-11T04:18:03;11.60;;;5.87;;
47796;SDS011;33558;50.922;14.068;2022-11-11T04:20:49;13.67;;;6.77;;
47796;SDS011;33558;50.922;14.068;2022-11-11T04:23:52;11.83;;;6.43;;
47796;SDS011;33558;50.922;14.068;2022-11-11T04:26:37;15.33;;;6.30;;
47796;SDS011;33558;50.922;14.068;2022-11-11T04:29:21;15.87;;;6.67;;
47796;SDS011;33558;50.922;14.068;2022-11-11T04:32:13;9.47;;;5.77;;
47796;SDS011;33558;50.922;14.068;2022-11-11T04:35:14;12.87;;;6.10;;
47796;SDS011;33558;50.922;14.068;2022-11-11T04:37:59;11.43;;;6.13;;
47796;SDS011;33558;50.922;14.068;2022-11-11T04:40:59;13.53;;;5.80;;
47796;SDS011;33558;50.922;14.068;2022-11-11T04:43:47;12.03;;;5.90;;
47796;SDS011;33558;50.922;14.068;2022-11-11T04:46:50;13.43;;;6.20;;
47796;SDS011;33558;50.922;14.068;2022-11-11T10:50:05;15.53;;;9.63;;
47796;SDS011;33558;50.922;14.068;2022-11-11T10:52:58;14.67;;;9.30;;
47796;SDS011;33558;50.922;14.068;2022-11-11T10:55:45;16.97;;;9.63;;
47796;SDS011;33558;50.922;14.068;2022-11-11T10:58:34;13.17;;;9.93;;
47796;SDS011;33558;50.922;14.068;2022-11-11T11:01:24;15.07;;;9.23;;
47796;SDS011;33558;50.922;14.068;2022-11-11T11:04:14;12.60;;;8.10;;
47796;SDS011;33558;50.922;14.068;2022-11-11T11:07:03;17.37;;;10.10;;
47796;SDS011;33558;50.922;14.068;2022-11-11T11:09:50;14.63;;;9.07;;
47796;SDS011;33558;50.922;14.068;2022-11-11T11:12:38;14.10;;;9.13;;
47796;SDS011;33558;50.922;14.068;2022-11-11T11:15:26;12.17;;;8.60;;
47796;SDS011;33558;50.922;14.068;2022-11-11T11:18:13;13.70;;;9.30;;
47796;SDS011;33558;50.922;14.068;2022-11-11T11:21:00;16.30;;;11.33;;
47796;SDS011;33558;50.922;14.068;2022-11-11T11:23:48;18.23;;;11.67;;
47796;SDS011;33558;50.922;14.068;2022-11-11T11:26:41;15.80;;;9.93;;
47796;SDS011;33558;50.922;14.068;2022-11-11T11:29:27;12.13;;;9.07;;
47796;SDS011;33558;50.922;14.068;2022-11-11T11:32:16;16.73;;;9.80;;
47796;SDS011;33558;50.922;14.068;2022-11-11T11:35:02;15.67;;;9.40;;
47796;SDS011;33558;50.922;14.068;2022-11-11T11:37:48;15.45;;;8.90;;
47796;SDS011;33558;50.922;14.068;2022-11-11T11:43:31;12.37;;;8.43;;
47796;SDS011;33558;50.922;14.068;2022-11-11T11:46:18;14.47;;;8.80;;
47796;SDS011;33558;50.922;14.068;2022-11-11T11:49:11;12.90;;;8.67;;
47796;SDS011;33558;50.922;14.068;2022-11-11T11:52:05;15.53;;;8.63;;
47796;SDS011;33558;50.922;14.068;2022-11-11T11:54:56;12.83;;;8.10;;
47796;SDS011;33558;50.922;14.068;2022-11-11T11:57:51;13.90;;;8.83;;
47796;SDS011;33558;50.922;14.068;2022-11-11T12:00:41;11.90;;;8.13;;
47796;SDS011;33558;50.922;14.068;2022-11-11T12:06:45;14.03;;;9.23;;
47796;SDS011;33558;50.922;14.068;2022-11-11T12:09:37;15.43;;;9.00;;
47796;SDS011;33558;50.922;14.068;2022-11-11T12:12:31;12.13;;;7.27;;
47796;SDS011;33558;50.922;14.068;2022-11-11T12:15:26;12.33;;;7.50;;
47796;SDS011;33558;50.922;14.068;2022-11-11T12:18:30;11.17;;;7.40;;
47796;SDS011;33558;50.922;14.068;2022-11-11T12:21:23;11.60;;;7.33;;
47796;SDS011;33558;50.922;14.068;2022-11-11T12:24:13;12.13;;;7.43;;
47796;SDS011;33558;50.922;14.068;2022-11-11T12:27:10;11.43;;;6.90;;
47796;SDS011;33558;50.922;14.068;2022-11-11T12:30:02;13.82;;;7.93;;
47796;SDS011;33558;50.922;14.068;2022-11-11T12:32:56;12.95;;;7.90;;
47796;SDS011;33558;50.922;14.068;2022-11-11T12:36:00;16.98;;;7.90;;
47796;SDS011;33558;50.922;14.068;2022-11-11T12:38:55;15.63;;;8.45;;
47796;SDS011;33558;50.922;14.068;2022-11-11T12:41:47;11.75;;;8.40;;
47796;SDS011;33558;50.922;14.068;2022-11-11T12:44:41;13.50;;;8.23;;
47796;SDS011;33558;50.922;14.068;2022-11-11T12:47:35;11.43;;;8.45;;
47796;SDS011;33558;50.922;14.068;2022-11-11T12:50:25;13.07;;;7.80;;
47796;SDS011;33558;50.922;14.068;2022-11-11T12:53:16;11.05;;;7.28;;
47796;SDS011;33558;50.922;14.068;2022-11-11T12:56:09;12.18;;;7.57;;
47796;SDS011;33558;50.922;14.068;2022-11-11T12:58:59;12.80;;;7.50;;
47796;SDS011;33558;50.922;14.068;2022-11-11T13:01:50;12.88;;;7.28;;
47796;SDS011;33558;50.922;14.068;2022-11-11T13:04:52;11.45;;;7.38;;
47796;SDS011;33558;50.922;14.068;2022-11-11T13:07:53;12.25;;;7.90;;
47796;SDS011;33558;50.922;14.068;2022-11-11T13:10:57;13.15;;;8.43;;
47796;SDS011;33558;50.922;14.068;2022-11-11T13:13:51;13.65;;;8.77;;
47796;SDS011;33558;50.922;14.068;2022-11-11T13:16:45;12.53;;;7.77;;
47796;SDS011;33558;50.922;14.068;2022-11-11T13:19:35;13.88;;;7.90;;
47796;SDS011;33558;50.922;14.068;2022-11-11T13:22:24;21.47;;;13.10;;
47796;SDS011;33558;50.922;14.068;2022-11-11T13:25:13;17.58;;;11.00;;
47796;SDS011;33558;50.922;14.068;2022-11-11T13:28:02;19.43;;;11.33;;
47796;SDS011;33558;50.922;14.068;2022-11-11T13:30:59;17.17;;;9.48;;
47796;SDS011;33558;50.922;14.068;2022-11-11T13:33:50;13.25;;;9.68;;
47796;SDS011;33558;50.922;14.068;2022-11-11T13:36:40;13.38;;;9.07;;
47796;SDS011;33558;50.922;14.068;2022-11-11T13:39:27;12.83;;;8.97;;
47796;SDS011;33558;50.922;14.068;2022-11-11T13:42:20;12.87;;;9.27;;
47796;SDS011;33558;50.922;14.068;2022-11-11T13:45:07;15.75;;;9.60;;
47796;SDS011;33558;50.922;14.068;2022-11-11T13:48:03;17.77;;;10.93;;
47796;SDS011;33558;50.922;14.068;2022-11-11T13:53:35;17.33;;;10.30;;
47796;SDS011;33558;50.922;14.068;2022-11-11T13:59:13;17.70;;;8.80;;
47796;SDS011;33558;50.922;14.068;2022-11-11T14:05:16;15.43;;;8.07;;
47796;SDS011;33558;50.922;14.068;2022-11-11T14:08:06;13.30;;;9.23;;
47796;SDS011;33558;50.922;14.068;2022-11-11T14:10:53;15.20;;;9.90;;
47796;SDS011;33558;50.922;14.068;2022-11-11T14:13:40;14.53;;;9.70;;
47796;SDS011;33558;50.922;14.068;2022-11-11T14:19:44;15.27;;;9.70;;
47796;SDS011;33558;50.922;14.068;2022-11-11T14:22:30;16.63;;;8.80;;
47796;SDS011;33558;50.922;14.068;2022-11-11T14:25:19;16.17;;;9.82;;
47796;SDS011;33558;50.922;14.068;2022-11-11T14:28:18;18.67;;;10.43;;
47796;SDS011;33558;50.922;14.068;2022-11-11T14:34:25;12.73;;;8.70;;
47796;SDS011;33558;50.922;14.068;2022-11-11T14:37:25;14.33;;;8.90;;
47796;SDS011;33558;50.922;14.068;2022-11-11T14:40:23;13.40;;;8.80;;
47796;SDS011;33558;50.922;14.068;2022-11-11T14:46:19;15.73;;;9.13;;
47796;SDS011;33558;50.922;14.068;2022-11-11T14:49:06;15.87;;;9.03;;
47796;SDS011;33558;50.922;14.068;2022-11-11T14:51:54;17.80;;;10.50;;
47796;SDS011;33558;50.922;14.068;2022-11-11T14:54:42;18.10;;;10.40;;
47796;SDS011;33558;50.922;14.068;2022-11-11T14:57:34;18.83;;;10.40;;
47796;SDS011;33558;50.922;14.068;2022-11-11T15:00:23;19.53;;;11.67;;
47796;SDS011;33558;50.922;14.068;2022-11-11T15:03:11;16.33;;;10.50;;
47796;SDS011;33558;50.922;14.068;2022-11-11T15:05:59;16.70;;;10.23;;
47796;SDS011;33558;50.922;14.068;2022-11-11T15:08:49;21.77;;;11.33;;
47796;SDS011;33558;50.922;14.068;2022-11-11T15:11:38;21.40;;;10.87;;
47796;SDS011;33558;50.922;14.068;2022-11-11T15:14:29;18.80;;;11.07;;
47796;SDS011;33558;50.922;14.068;2022-11-11T15:17:19;18.53;;;10.90;;
47796;SDS011;33558;50.922;14.068;2022-11-11T15:20:18;19.30;;;11.07;;
47796;SDS011;33558;50.922;14.068;2022-11-11T15:23:11;16.63;;;10.00;;
47796;SDS011;33558;50.922;14.068;2022-11-11T15:26:05;17.80;;;9.93;;
47796;SDS011;33558;50.922;14.068;2022-11-11T15:29:02;19.13;;;11.13;;
47796;SDS011;33558;50.922;14.068;2022-11-11T15:31:56;18.67;;;11.17;;
47796;SDS011;33558;50.922;14.068;2022-11-11T15:34:49;19.63;;;11.10;;
47796;SDS011;33558;50.922;14.068;2022-11-11T15:37:37;16.90;;;11.10;;
47796;SDS011;33558;50.922;14.068;2022-11-11T15:40:23;17.37;;;11.73;;
47796;SDS011;33558;50.922;14.068;2022-11-11T15:43:13;19.70;;;11.73;;
47796;SDS011;33558;50.922;14.068;2022-11-11T15:46:01;19.50;;;11.70;;
47796;SDS011;33558;50.922;14.068;2022-11-11T15:48:47;17.63;;;10.97;;
47796;SDS011;33558;50.922;14.068;2022-11-11T15:51:35;17.67;;;10.83;;
47796;SDS011;33558;50.922;14.068;2022-11-11T15:54:21;19.45;;;10.93;;
47796;SDS011;33558;50.922;14.068;2022-11-11T15:57:14;20.42;;;12.52;;
47796;SDS011;33558;50.922;14.068;2022-11-11T16:00:23;22.00;;;11.97;;
47796;SDS011;33558;50.922;14.068;2022-11-11T16:05:57;23.90;;;14.83;;
47796;SDS011;33558;50.922;14.068;2022-11-11T16:08:43;21.70;;;12.63;;
47796;SDS011;33558;50.922;14.068;2022-11-11T16:11:29;20.25;;;12.57;;
47796;SDS011;33558;50.922;14.068;2022-11-11T16:14:18;18.97;;;12.47;;
47796;SDS011;33558;50.922;14.068;2022-11-11T16:17:09;22.63;;;13.63;;
47796;SDS011;33558;50.922;14.068;2022-11-11T16:19:55;22.07;;;13.93;;
47796;SDS011;33558;50.922;14.068;2022-11-11T16:22:41;28.67;;;16.83;;
47796;SDS011;33558;50.922;14.068;2022-11-11T16:28:12;24.97;;;15.13;;
47796;SDS011;33558;50.922;14.068;2022-11-11T16:30:58;30.52;;;15.65;;
47796;SDS011;33558;50.922;14.068;2022-11-11T16:33:45;25.70;;;15.87;;
47796;SDS011;33558;50.922;14.068;2022-11-11T16:36:30;32.30;;;18.63;;
47796;SDS011;33558;50.922;14.068;2022-11-11T16:39:18;24.40;;;14.43;;
47796;SDS011;33558;50.922;14.068;2022-11-11T16:42:04;24.67;;;14.77;;
47796;SDS011;33558;50.922;14.068;2022-11-11T16:44:55;23.43;;;14.47;;
47796;SDS011;33558;50.922;14.068;2022-11-11T16:47:50;24.83;;;16.43;;
